Time;durP1;ratioP1;P1;durP2;ratioP2;P2;SDS_P1;SDS_P2;PMS_P1;PMS_P2;Temp;Humidity;BMP_temperature;BMP_pressure;BME280_temperature;BME280_humidity;BME280_pressure;Samples;Min_cycle;Max_cycle;Signal;HPM_P1;HPM_P2
2022/05/25 00:01:08;;;;;;;9.25;3.78;;;;;;;;;;5050206;28;20032;-77
2022/05/25 00:03:35;;;;;;;8.27;3.60;;;;;;;;;;5053204;28;20024;-77
2022/05/25 00:06:02;;;;;;;4.95;3.65;;;;;;;;;;5053801;28;20036;-79
2022/05/25 00:08:28;;;;;;;7.22;3.83;;;;;;;;;;5051776;28;20077;-79
2022/05/25 00:10:54;;;;;;;6.07;3.22;;;;;;;;;;5051555;28;20033;-76
2022/05/25 00:13:20;;;;;;;7.05;3.78;;;;;;;;;;5046398;28;20049;-77
2022/05/25 00:15:46;;;;;;;6.82;3.88;;;;;;;;;;5052648;28;20033;-75
2022/05/25 00:18:12;;;;;;;7.60;4.13;;;;;;;;;;5054265;28;20030;-78
2022/05/25 00:20:38;;;;;;;8.57;4.57;;;;;;;;;;5051220;28;20041;-77
2022/05/25 00:23:04;;;;;;;11.98;5.07;;;;;;;;;;5050365;28;20085;-77
2022/05/25 00:25:33;;;;;;;8.68;4.40;;;;;;;;;;5049431;28;20040;-76
2022/05/25 00:27:59;;;;;;;9.27;5.72;;;;;;;;;;5051534;28;20556;-78
2022/05/25 00:30:26;;;;;;;7.55;4.60;;;;;;;;;;5050898;28;20056;-76
2022/05/25 00:32:53;;;;;;;7.88;4.72;;;;;;;;;;5052014;28;20077;-77
2022/05/25 00:35:21;;;;;;;6.93;4.45;;;;;;;;;;5053719;28;20013;-74
2022/05/25 00:37:47;;;;;;;12.00;7.18;;;;;;;;;;5050439;28;20029;-77
2022/05/25 00:40:14;;;;;;;16.80;6.95;;;;;;;;;;5053992;28;20033;-76
2022/05/25 00:42:40;;;;;;;8.98;5.72;;;;;;;;;;5053659;28;20148;-80
2022/05/25 00:45:07;;;;;;;9.30;5.00;;;;;;;;;;5040755;28;20022;-79
2022/05/25 00:47:35;;;;;;;8.88;5.45;;;;;;;;;;5041949;28;20068;-80
2022/05/25 00:50:02;;;;;;;8.18;5.25;;;;;;;;;;5042557;28;20029;-80
2022/05/25 00:52:28;;;;;;;8.57;5.85;;;;;;;;;;5042051;28;20048;-80
2022/05/25 00:54:56;;;;;;;10.90;5.53;;;;;;;;;;5040486;28;20033;-78
2022/05/25 00:57:23;;;;;;;9.55;6.40;;;;;;;;;;5044143;28;20028;-78
2022/05/25 00:59:59;;;;;;;8.18;5.78;;;;;;;;;;5047891;28;20460;-77
2022/05/25 01:02:27;;;;;;;10.73;6.35;;;;;;;;;;5046789;28;20025;-76
2022/05/25 01:04:53;;;;;;;8.10;6.20;;;;;;;;;;5054646;28;20030;-75
2022/05/25 01:07:33;;;;;;;9.02;6.03;;;;;;;;;;5054295;28;20045;-75
2022/05/25 01:10:17;;;;;;;11.77;6.45;;;;;;;;;;5054269;28;20052;-77
2022/05/25 01:12:55;;;;;;;9.35;6.68;;;;;;;;;;5044747;28;20041;-78
2022/05/25 01:15:39;;;;;;;11.10;6.63;;;;;;;;;;5042581;28;20044;-79
2022/05/25 01:18:05;;;;;;;11.07;7.30;;;;;;;;;;5045977;28;20025;-77
2022/05/25 01:20:41;;;;;;;11.88;6.38;;;;;;;;;;5052595;28;20264;-77
2022/05/25 01:23:31;;;;;;;11.23;6.72;;;;;;;;;;5050470;28;20025;-77
2022/05/25 01:26:05;;;;;;;13.32;6.97;;;;;;;;;;5030486;28;20030;-77
2022/05/25 01:28:34;;;;;;;8.30;6.47;;;;;;;;;;5049067;28;20442;-79
2022/05/25 01:31:03;;;;;;;11.60;6.35;;;;;;;;;;5048673;28;20482;-78
2022/05/25 01:33:39;;;;;;;12.55;6.97;;;;;;;;;;5049469;28;20029;-75
2022/05/25 01:36:05;;;;;;;11.68;7.32;;;;;;;;;;5052058;28;20506;-75
2022/05/25 01:38:41;;;;;;;8.32;6.57;;;;;;;;;;5052589;28;20153;-78
2022/05/25 01:41:12;;;;;;;13.48;6.43;;;;;;;;;;5055534;28;20029;-78
2022/05/25 01:43:43;;;;;;;11.65;7.43;;;;;;;;;;5054014;28;20030;-76
2022/05/25 01:46:17;;;;;;;11.98;7.20;;;;;;;;;;5049290;28;20029;-77
2022/05/25 01:48:44;;;;;;;9.32;7.13;;;;;;;;;;5050321;28;20055;-76
2022/05/25 01:51:12;;;;;;;11.30;7.25;;;;;;;;;;5042630;28;20044;-79
2022/05/25 01:53:40;;;;;;;11.25;7.40;;;;;;;;;;5039883;28;20073;-78
2022/05/25 01:56:08;;;;;;;10.00;6.82;;;;;;;;;;5036778;28;20055;-80
2022/05/25 01:58:36;;;;;;;12.48;7.75;;;;;;;;;;5036385;28;20481;-79
2022/05/25 02:01:03;;;;;;;13.73;8.13;;;;;;;;;;5037105;28;20018;-77
2022/05/25 02:06:33;;;;;;;15.60;7.47;;;;;;;;;;5052124;28;20043;-76
2022/05/25 02:09:14;;;;;;;12.60;8.05;;;;;;;;;;5053182;28;20040;-76
2022/05/25 02:11:41;;;;;;;10.80;7.72;;;;;;;;;;5054485;28;20044;-76
2022/05/25 02:14:16;;;;;;;10.07;7.43;;;;;;;;;;5047261;28;20100;-77
2022/05/25 02:16:57;;;;;;;13.65;8.35;;;;;;;;;;5035367;28;20021;-76
2022/05/25 02:19:26;;;;;;;15.55;8.10;;;;;;;;;;5037544;28;20045;-80
2022/05/25 02:21:57;;;;;;;9.60;7.75;;;;;;;;;;5055603;22;20545;-75
2022/05/25 02:24:43;;;;;;;12.02;7.95;;;;;;;;;;5033560;28;20026;-75
2022/05/25 02:27:29;;;;;;;14.52;8.02;;;;;;;;;;5032816;28;20030;-75
2022/05/25 02:30:01;;;;;;;13.55;7.97;;;;;;;;;;5033195;28;20018;-75
2022/05/25 02:32:32;;;;;;;14.55;8.10;;;;;;;;;;5035245;28;20386;-75
2022/05/25 02:34:58;;;;;;;15.25;8.27;;;;;;;;;;5038224;28;20036;-74
2022/05/25 02:37:25;;;;;;;10.65;7.50;;;;;;;;;;5035382;28;20123;-74
2022/05/25 02:39:53;;;;;;;10.43;7.50;;;;;;;;;;5037568;28;20025;-74
2022/05/25 02:42:19;;;;;;;11.63;7.72;;;;;;;;;;5037340;28;20029;-73
2022/05/25 02:44:45;;;;;;;13.45;7.72;;;;;;;;;;5037877;28;20152;-73
2022/05/25 02:47:11;;;;;;;12.80;7.88;;;;;;;;;;5036024;28;20025;-74
2022/05/25 02:49:37;;;;;;;11.25;7.65;;;;;;;;;;5032999;28;20056;-73
2022/05/25 02:52:04;;;;;;;10.48;7.60;;;;;;;;;;5033898;28;20041;-74
2022/05/25 02:54:30;;;;;;;10.70;7.65;;;;;;;;;;5036218;28;20032;-76
2022/05/25 02:56:56;;;;;;;11.27;7.50;;;;;;;;;;5036189;28;20033;-75
2022/05/25 02:59:22;;;;;;;10.82;7.10;;;;;;;;;;5038235;28;20025;-75
2022/05/25 03:01:48;;;;;;;11.07;7.18;;;;;;;;;;5049098;28;20022;-75
2022/05/25 03:04:15;;;;;;;13.60;7.88;;;;;;;;;;5053567;28;20026;-74
2022/05/25 03:06:41;;;;;;;11.00;7.20;;;;;;;;;;5053135;28;20038;-74
2022/05/25 03:09:07;;;;;;;11.15;7.63;;;;;;;;;;5045250;28;20033;-75
2022/05/25 03:11:33;;;;;;;11.35;7.60;;;;;;;;;;5040850;28;20026;-74
2022/05/25 03:13:59;;;;;;;11.05;8.02;;;;;;;;;;5040106;28;20057;-77
2022/05/25 03:16:25;;;;;;;9.27;7.25;;;;;;;;;;5033153;28;20025;-80
2022/05/25 03:18:51;;;;;;;13.20;8.00;;;;;;;;;;5035776;28;20061;-75
2022/05/25 03:21:20;;;;;;;15.25;8.10;;;;;;;;;;5036244;28;20033;-73
2022/05/25 03:23:46;;;;;;;11.43;7.53;;;;;;;;;;5035394;28;20462;-74
2022/05/25 03:26:12;;;;;;;14.45;7.88;;;;;;;;;;5037181;28;20047;-74
2022/05/25 03:28:38;;;;;;;12.00;7.32;;;;;;;;;;5036415;28;20096;-74
2022/05/25 03:31:05;;;;;;;11.38;8.23;;;;;;;;;;5037714;28;20056;-74
2022/05/25 03:33:31;;;;;;;9.20;6.80;;;;;;;;;;5038038;28;20025;-75
2022/05/25 03:35:57;;;;;;;9.52;7.25;;;;;;;;;;5036640;28;20067;-75
2022/05/25 03:38:23;;;;;;;12.43;7.90;;;;;;;;;;5036927;28;20022;-75
2022/05/25 03:40:50;;;;;;;9.60;7.72;;;;;;;;;;5035422;28;20021;-74
2022/05/25 03:43:17;;;;;;;13.30;7.78;;;;;;;;;;5036778;28;20226;-74
2022/05/25 03:45:43;;;;;;;12.73;7.88;;;;;;;;;;5035132;28;20075;-74
2022/05/25 03:48:11;;;;;;;16.20;8.13;;;;;;;;;;5035507;28;20029;-74
2022/05/25 03:50:38;;;;;;;11.88;7.65;;;;;;;;;;5036269;28;20036;-75
2022/05/25 03:53:05;;;;;;;10.70;7.80;;;;;;;;;;5035993;28;20028;-75
2022/05/25 03:55:31;;;;;;;12.48;7.80;;;;;;;;;;5035800;28;20427;-75
2022/05/25 03:57:57;;;;;;;16.83;8.70;;;;;;;;;;5035902;28;20063;-74
2022/05/25 04:00:23;;;;;;;15.20;8.27;;;;;;;;;;5036639;28;20024;-74
2022/05/25 04:02:49;;;;;;;13.65;8.65;;;;;;;;;;5038549;28;20025;-74
2022/05/25 04:05:15;;;;;;;11.80;8.80;;;;;;;;;;5038981;28;20059;-74
2022/05/25 04:07:42;;;;;;;13.32;9.60;;;;;;;;;;5043099;28;20030;-75
2022/05/25 04:10:12;;;;;;;11.52;9.02;;;;;;;;;;5036190;28;20030;-74
2022/05/25 04:12:38;;;;;;;15.23;9.02;;;;;;;;;;5048452;28;20021;-74
2022/05/25 04:15:05;;;;;;;12.52;8.63;;;;;;;;;;5036590;28;20493;-76
2022/05/25 04:17:32;;;;;;;13.10;9.07;;;;;;;;;;5034104;28;20021;-75
2022/05/25 04:19:58;;;;;;;14.63;10.00;;;;;;;;;;5035659;28;20504;-75
2022/05/25 04:22:24;;;;;;;12.40;9.43;;;;;;;;;;5035499;28;20116;-75
2022/05/25 04:24:50;;;;;;;14.30;9.20;;;;;;;;;;5035593;28;20082;-75
2022/05/25 04:27:16;;;;;;;12.73;8.98;;;;;;;;;;5034741;28;20079;-75
2022/05/25 04:29:42;;;;;;;15.10;9.93;;;;;;;;;;5035197;28;20505;-75
2022/05/25 04:32:08;;;;;;;21.58;10.55;;;;;;;;;;5048309;28;20033;-75
2022/05/25 04:34:34;;;;;;;13.52;9.98;;;;;;;;;;5056058;28;20025;-75
2022/05/25 04:37:48;;;;;;;13.50;9.45;;;;;;;;;;5054717;28;20036;-75
2022/05/25 04:39:46;;;;;;;18.13;10.07;;;;;;;;;;5035421;28;20030;-76
2022/05/25 04:42:12;;;;;;;13.35;9.50;;;;;;;;;;5035682;28;20025;-74
2022/05/25 04:44:38;;;;;;;14.52;9.48;;;;;;;;;;5035418;28;20127;-75
2022/05/25 04:47:07;;;;;;;14.45;9.35;;;;;;;;;;5040874;28;20021;-74
2022/05/25 04:49:33;;;;;;;15.38;9.95;;;;;;;;;;5053335;28;20108;-76
2022/05/25 04:51:59;;;;;;;18.63;8.77;;;;;;;;;;5041676;28;20088;-74
2022/05/25 04:54:25;;;;;;;14.98;9.70;;;;;;;;;;5039982;28;20479;-74
2022/05/25 04:59:36;;;;;;;13.75;9.40;;;;;;;;;;5035613;28;20056;-75
2022/05/25 05:02:02;;;;;;;15.02;9.73;;;;;;;;;;5035645;28;20021;-75
2022/05/25 05:04:28;;;;;;;14.15;8.82;;;;;;;;;;5038270;28;20148;-75
2022/05/25 05:06:54;;;;;;;13.40;9.05;;;;;;;;;;5040843;28;20053;-76
2022/05/25 05:09:20;;;;;;;13.43;9.32;;;;;;;;;;5037795;28;20025;-74
2022/05/25 05:11:46;;;;;;;14.77;9.45;;;;;;;;;;5035161;28;20454;-74
2022/05/25 05:14:14;;;;;;;14.95;9.10;;;;;;;;;;5034924;28;20029;-74
2022/05/25 05:16:40;;;;;;;16.75;9.88;;;;;;;;;;5035972;28;20025;-75
2022/05/25 05:19:06;;;;;;;15.48;9.27;;;;;;;;;;5035453;28;20044;-76
2022/05/25 05:21:32;;;;;;;15.57;9.38;;;;;;;;;;5034871;28;20463;-75
2022/05/25 05:23:58;;;;;;;15.32;8.90;;;;;;;;;;5036348;28;20045;-75
2022/05/25 05:26:23;;;;;;;14.60;9.98;;;;;;;;;;5038773;28;20025;-74
2022/05/25 05:28:53;;;;;;;13.73;9.15;;;;;;;;;;5040876;28;20030;-76
2022/05/25 05:31:19;;;;;;;14.18;9.90;;;;;;;;;;5036948;28;20100;-75
2022/05/25 05:33:45;;;;;;;12.77;8.48;;;;;;;;;;5038146;28;20497;-75
2022/05/25 05:36:11;;;;;;;12.60;8.88;;;;;;;;;;5042476;28;20121;-74
2022/05/25 05:38:41;;;;;;;16.27;9.60;;;;;;;;;;5055253;28;20030;-74
2022/05/25 05:41:07;;;;;;;14.68;9.40;;;;;;;;;;5056924;28;20009;-74
2022/05/25 05:43:33;;;;;;;11.18;7.95;;;;;;;;;;5053922;28;20470;-75
2022/05/25 05:46:00;;;;;;;12.48;7.78;;;;;;;;;;5053669;28;20041;-75
2022/05/25 05:48:28;;;;;;;14.13;7.80;;;;;;;;;;5038951;28;20487;-74
2022/05/25 05:50:55;;;;;;;16.17;7.55;;;;;;;;;;5034470;28;20034;-73
2022/05/25 05:53:22;;;;;;;11.23;7.47;;;;;;;;;;5035828;28;20021;-74
2022/05/25 05:55:48;;;;;;;10.18;6.68;;;;;;;;;;5046016;28;20064;-74
2022/05/25 05:58:14;;;;;;;12.68;7.25;;;;;;;;;;5046435;28;20026;-73
2022/05/25 06:00:40;;;;;;;12.82;7.00;;;;;;;;;;5045509;28;20030;-75
2022/05/25 06:03:06;;;;;;;11.57;7.22;;;;;;;;;;5051482;28;20021;-73
2022/05/25 06:05:32;;;;;;;12.85;6.63;;;;;;;;;;5054645;28;20029;-72
2022/05/25 06:08:07;;;;;;;15.80;6.38;;;;;;;;;;5046607;28;20029;-74
2022/05/25 06:10:33;;;;;;;10.57;6.75;;;;;;;;;;5033532;28;20053;-75
2022/05/25 06:12:59;;;;;;;18.63;8.90;;;;;;;;;;5032918;28;20037;-74
2022/05/25 06:20:54;;;;;;;9.90;6.07;;;;;;;;;;5037129;28;20032;-76
2022/05/25 06:23:20;;;;;;;13.13;6.55;;;;;;;;;;5037247;28;20418;-74
2022/05/25 06:25:46;;;;;;;9.52;5.43;;;;;;;;;;5034551;28;20037;-74
2022/05/25 06:28:12;;;;;;;10.98;6.47;;;;;;;;;;5034869;28;20441;-75
2022/05/25 06:30:37;;;;;;;12.55;5.55;;;;;;;;;;5035007;28;20077;-74
2022/05/25 06:33:07;;;;;;;9.95;5.28;;;;;;;;;;5034219;28;20032;-75
2022/05/25 06:35:36;;;;;;;9.18;5.40;;;;;;;;;;5041424;28;20088;-74
2022/05/25 06:38:03;;;;;;;8.45;5.28;;;;;;;;;;5041190;28;20120;-76
2022/05/25 06:40:29;;;;;;;10.50;5.32;;;;;;;;;;5041356;28;20471;-78
2022/05/25 06:42:54;;;;;;;14.02;6.03;;;;;;;;;;5035913;28;20106;-74
2022/05/25 06:45:20;;;;;;;13.02;6.15;;;;;;;;;;5034290;28;20388;-78
2022/05/25 06:47:46;;;;;;;12.55;5.90;;;;;;;;;;5035805;28;20056;-79
2022/05/25 06:50:12;;;;;;;11.05;6.20;;;;;;;;;;5036730;28;20208;-78
2022/05/25 06:52:38;;;;;;;13.27;6.03;;;;;;;;;;5031106;28;20037;-75
2022/05/25 06:55:05;;;;;;;11.55;6.45;;;;;;;;;;5032813;28;20035;-75
2022/05/25 06:57:31;;;;;;;12.48;6.50;;;;;;;;;;5032095;28;20132;-74
2022/05/25 06:59:57;;;;;;;15.60;5.68;;;;;;;;;;5036222;28;20045;-79
2022/05/25 07:02:24;;;;;;;12.32;6.18;;;;;;;;;;5037741;28;20463;-75
2022/05/25 07:04:51;;;;;;;12.25;6.25;;;;;;;;;;5034315;28;20489;-75
2022/05/25 07:07:17;;;;;;;10.75;5.78;;;;;;;;;;5035412;28;20029;-80
2022/05/25 07:09:43;;;;;;;12.38;6.63;;;;;;;;;;5035761;28;20030;-74
2022/05/25 07:12:09;;;;;;;12.32;6.63;;;;;;;;;;5033141;28;20375;-73
2022/05/25 07:14:36;;;;;;;10.70;5.75;;;;;;;;;;5031733;28;20029;-74
2022/05/25 07:17:03;;;;;;;11.25;6.10;;;;;;;;;;5032765;28;20024;-74
2022/05/25 07:19:29;;;;;;;34.72;14.23;;;;;;;;;;5035110;28;20084;-75
2022/05/25 07:21:55;;;;;;;18.13;9.95;;;;;;;;;;5036423;28;20026;-75
2022/05/25 07:24:21;;;;;;;18.70;7.80;;;;;;;;;;5032899;28;20026;-73
2022/05/25 07:26:47;;;;;;;14.27;7.70;;;;;;;;;;5031945;28;20026;-73
2022/05/25 07:29:14;;;;;;;17.77;7.57;;;;;;;;;;5033219;28;20030;-74
2022/05/25 07:31:42;;;;;;;12.63;5.55;;;;;;;;;;5034647;28;20025;-78
2022/05/25 07:34:17;;;;;;;10.32;5.03;;;;;;;;;;5034101;28;20035;-72
2022/05/25 07:36:44;;;;;;;15.18;5.88;;;;;;;;;;5031712;28;20025;-73
2022/05/25 07:39:14;;;;;;;14.55;7.28;;;;;;;;;;5033287;28;20018;-75
2022/05/25 07:41:41;;;;;;;10.02;5.90;;;;;;;;;;5032601;28;20473;-74
2022/05/25 07:44:13;;;;;;;12.00;6.97;;;;;;;;;;5032196;28;20032;-73
2022/05/25 07:46:39;;;;;;;31.65;14.27;;;;;;;;;;5033023;28;20025;-74
2022/05/25 07:49:05;;;;;;;11.05;5.78;;;;;;;;;;5034238;28;20017;-73
2022/05/25 07:51:31;;;;;;;24.50;10.07;;;;;;;;;;5032163;28;20045;-74
2022/05/25 07:53:58;;;;;;;11.38;5.38;;;;;;;;;;5031681;28;20409;-73
2022/05/25 07:56:32;;;;;;;10.43;4.50;;;;;;;;;;5032029;28;20500;-73
2022/05/25 07:58:58;;;;;;;11.48;4.95;;;;;;;;;;5031398;28;20096;-74
2022/05/25 08:06:56;;;;;;;6.38;3.92;;;;;;;;;;5036942;28;20409;-74
2022/05/25 08:09:22;;;;;;;8.25;4.55;;;;;;;;;;5035514;28;20029;-74
2022/05/25 08:11:48;;;;;;;7.78;4.07;;;;;;;;;;5036090;28;20029;-73
2022/05/25 08:14:14;;;;;;;9.13;3.97;;;;;;;;;;5034783;28;20489;-74
2022/05/25 08:16:40;;;;;;;8.88;4.95;;;;;;;;;;5034177;28;20581;-74
2022/05/25 08:19:06;;;;;;;6.75;3.90;;;;;;;;;;5036182;28;20061;-73
2022/05/25 08:21:32;;;;;;;8.20;3.47;;;;;;;;;;5062560;22;20109;-74
2022/05/25 08:23:58;;;;;;;8.20;4.22;;;;;;;;;;5036879;28;20025;-74
2022/05/25 08:26:24;;;;;;;15.60;4.28;;;;;;;;;;5036927;28;20036;-76
2022/05/25 08:28:51;;;;;;;9.85;4.53;;;;;;;;;;5035805;28;20033;-75
2022/05/25 08:31:17;;;;;;;10.98;4.35;;;;;;;;;;5033122;28;20024;-76
2022/05/25 08:33:43;;;;;;;10.60;5.00;;;;;;;;;;5034680;28;20512;-72
2022/05/25 08:36:10;;;;;;;8.20;4.75;;;;;;;;;;5034674;28;20026;-75
2022/05/25 08:38:36;;;;;;;8.95;3.60;;;;;;;;;;5034829;28;20044;-76
2022/05/25 08:41:02;;;;;;;8.20;4.00;;;;;;;;;;5032824;28;20030;-75
2022/05/25 08:43:42;;;;;;;7.82;3.78;;;;;;;;;;5034725;28;20086;-74
2022/05/25 08:46:13;;;;;;;6.85;3.67;;;;;;;;;;5035059;28;20052;-76
2022/05/25 08:48:40;;;;;;;6.53;3.53;;;;;;;;;;5034872;28;20048;-75
2022/05/25 08:51:19;;;;;;;5.68;2.95;;;;;;;;;;5035120;28;20049;-71
2022/05/25 08:53:45;;;;;;;5.63;3.28;;;;;;;;;;5034464;28;20022;-73
2022/05/25 08:56:16;;;;;;;6.00;3.22;;;;;;;;;;5034493;28;20036;-72
2022/05/25 08:58:46;;;;;;;4.78;3.05;;;;;;;;;;5033247;28;20018;-73
2022/05/25 09:01:15;;;;;;;6.25;3.00;;;;;;;;;;5033387;28;20018;-72
2022/05/25 09:03:57;;;;;;;9.77;3.17;;;;;;;;;;5034907;28;20025;-72
2022/05/25 09:06:29;;;;;;;8.05;3.60;;;;;;;;;;5035055;28;20021;-71
2022/05/25 09:09:01;;;;;;;4.75;3.08;;;;;;;;;;5034677;28;20018;-71
2022/05/25 09:11:47;;;;;;;7.85;3.08;;;;;;;;;;5033532;28;20387;-71
2022/05/25 09:14:20;;;;;;;6.93;3.20;;;;;;;;;;5033009;28;20109;-71
2022/05/25 09:16:49;;;;;;;4.97;3.60;;;;;;;;;;5032459;28;20030;-72
2022/05/25 09:19:18;;;;;;;6.75;2.80;;;;;;;;;;5036737;28;20521;-73
2022/05/25 09:21:54;;;;;;;6.28;3.42;;;;;;;;;;5033321;28;20021;-71
2022/05/25 09:24:21;;;;;;;5.07;2.92;;;;;;;;;;5034200;28;20061;-75
2022/05/25 09:26:48;;;;;;;4.25;2.80;;;;;;;;;;5035036;28;20029;-74
2022/05/25 09:29:14;;;;;;;3.90;3.40;;;;;;;;;;5038028;28;20105;-71
2022/05/25 09:31:42;;;;;;;7.00;3.20;;;;;;;;;;5033490;28;20044;-72
2022/05/25 09:34:11;;;;;;;6.18;3.50;;;;;;;;;;5033971;28;20520;-73
2022/05/25 09:36:44;;;;;;;6.13;3.05;;;;;;;;;;5033468;28;20045;-73
2022/05/25 09:39:30;;;;;;;6.10;3.05;;;;;;;;;;5034508;28;20025;-74
2022/05/25 09:41:58;;;;;;;5.88;3.20;;;;;;;;;;5033601;28;20056;-73
2022/05/25 09:44:26;;;;;;;8.63;3.47;;;;;;;;;;5034143;28;20033;-75
2022/05/25 09:47:02;;;;;;;5.05;2.78;;;;;;;;;;5034078;28;20028;-73
2022/05/25 09:49:34;;;;;;;3.70;2.72;;;;;;;;;;5032492;28;20034;-72
2022/05/25 09:52:03;;;;;;;6.35;2.70;;;;;;;;;;5033817;28;20063;-72
2022/05/25 09:54:32;;;;;;;4.57;2.35;;;;;;;;;;5033389;28;20037;-72
2022/05/25 09:57:02;;;;;;;10.48;3.42;;;;;;;;;;5032157;28;20021;-71
2022/05/25 09:59:32;;;;;;;9.05;3.05;;;;;;;;;;5034045;28;20022;-73
2022/05/25 10:01:58;;;;;;;9.48;2.92;;;;;;;;;;5033897;28;20025;-73
2022/05/25 10:04:36;;;;;;;7.63;3.10;;;;;;;;;;5034179;28;20051;-72
2022/05/25 10:07:12;;;;;;;15.00;4.80;;;;;;;;;;5033449;28;20482;-73
2022/05/25 10:09:43;;;;;;;11.38;3.88;;;;;;;;;;5034407;28;20038;-73
2022/05/25 10:12:19;;;;;;;8.30;2.70;;;;;;;;;;5033504;28;20045;-76
2022/05/25 10:14:54;;;;;;;5.47;2.50;;;;;;;;;;5032647;28;20057;-73
2022/05/25 10:17:37;;;;;;;6.88;2.42;;;;;;;;;;5033625;28;20027;-73
2022/05/25 10:20:06;;;;;;;4.50;2.42;;;;;;;;;;5034144;28;20544;-71
2022/05/25 10:22:41;;;;;;;4.30;2.00;;;;;;;;;;5034011;28;20033;-73
2022/05/25 10:25:07;;;;;;;;;;;;;;;;;;5034098;28;20021;-73
2022/05/25 10:27:41;;;;;;;8.48;3.70;;;;;;;;;;5033564;28;19920;-71
2022/05/25 10:38:50;;;;;;;4.53;2.00;;;;;;;;;;5034399;28;20532;-72
2022/05/25 10:41:37;;;;;;;3.33;1.58;;;;;;;;;;5034551;28;20402;-72
2022/05/25 10:44:23;;;;;;;3.40;1.92;;;;;;;;;;5034784;28;20108;-73
2022/05/25 10:46:52;;;;;;;4.43;2.22;;;;;;;;;;5034485;28;20017;-72
2022/05/25 10:49:19;;;;;;;6.50;1.95;;;;;;;;;;5042144;28;20026;-73
2022/05/25 10:51:48;;;;;;;3.63;1.45;;;;;;;;;;5034238;28;20018;-72
2022/05/25 10:57:11;;;;;;;4.50;1.95;;;;;;;;;;5033497;28;20032;-73
2022/05/25 10:59:51;;;;;;;10.30;1.92;;;;;;;;;;5033699;28;20022;-72
2022/05/25 11:02:17;;;;;;;2.90;1.70;;;;;;;;;;5033116;28;20496;-72
2022/05/25 11:04:49;;;;;;;4.57;1.50;;;;;;;;;;5034280;28;20025;-73
2022/05/25 11:07:18;;;;;;;3.65;1.67;;;;;;;;;;5033953;28;20036;-71
2022/05/25 11:09:53;;;;;;;2.97;1.70;;;;;;;;;;5033215;28;20081;-71
2022/05/25 11:12:31;;;;;;;4.40;2.13;;;;;;;;;;5032424;28;20037;-71
2022/05/25 11:14:59;;;;;;;4.78;1.40;;;;;;;;;;5033045;28;20131;-73
2022/05/25 11:17:51;;;;;;;4.20;1.77;;;;;;;;;;5032980;28;20025;-73
2022/05/25 11:20:26;;;;;;;17.02;7.30;;;;;;;;;;5032518;28;20040;-73
2022/05/25 11:23:09;;;;;;;2.45;1.67;;;;;;;;;;5031680;28;20057;-72
2022/05/25 11:25:54;;;;;;;6.32;1.58;;;;;;;;;;5032065;28;20021;-72
2022/05/25 11:28:33;;;;;;;4.80;1.60;;;;;;;;;;5032137;28;20148;-71
2022/05/25 11:31:06;;;;;;;3.80;1.77;;;;;;;;;;5032730;28;20514;-72
2022/05/25 11:33:51;;;;;;;4.95;1.63;;;;;;;;;;5033235;28;20500;-71
2022/05/25 11:36:17;;;;;;;1.75;0.98;;;;;;;;;;5032072;28;20036;-71
2022/05/25 11:39:05;;;;;;;2.03;1.10;;;;;;;;;;5034340;28;20096;-73
2022/05/25 11:41:38;;;;;;;4.07;1.45;;;;;;;;;;5035667;28;20033;-72
2022/05/25 11:44:22;;;;;;;4.38;1.30;;;;;;;;;;5035236;28;20018;-71
2022/05/25 11:46:48;;;;;;;;;;;;;;;;;;5036042;28;20026;-73
2022/05/25 11:49:31;;;;;;;3.70;1.10;;;;;;;;;;5034682;28;20000;-73
2022/05/25 11:52:10;;;;;;;1.83;1.02;;;;;;;;;;5035471;28;20029;-72
2022/05/25 11:54:51;;;;;;;3.78;1.30;;;;;;;;;;5036104;28;20076;-73
2022/05/25 11:57:35;;;;;;;3.22;1.25;;;;;;;;;;5035447;28;20100;-71
2022/05/25 12:00:11;;;;;;;4.75;1.48;;;;;;;;;;5036418;28;20021;-72
2022/05/25 12:02:55;;;;;;;1.20;0.93;;;;;;;;;;5036174;28;20061;-72
2022/05/25 12:05:21;;;;;;;3.90;1.15;;;;;;;;;;5035004;28;20595;-71
2022/05/25 12:07:53;;;;;;;2.55;0.90;;;;;;;;;;5035833;28;20064;-72
2022/05/25 12:10:37;;;;;;;3.58;1.08;;;;;;;;;;5035110;28;20057;-71
2022/05/25 12:13:09;;;;;;;9.52;1.52;;;;;;;;;;5035602;28;20029;-72
2022/05/25 12:15:52;;;;;;;2.35;0.93;;;;;;;;;;5035014;28;20037;-71
2022/05/25 12:18:41;;;;;;;3.35;1.30;;;;;;;;;;5033822;28;20048;-71
2022/05/25 12:21:13;;;;;;;5.10;1.27;;;;;;;;;;5035111;28;20017;-73
2022/05/25 12:23:43;;;;;;;3.38;1.20;;;;;;;;;;5034875;28;20021;-71
2022/05/25 12:26:25;;;;;;;4.65;1.10;;;;;;;;;;5034539;28;20048;-71
2022/05/25 12:28:52;;;;;;;2.28;0.80;;;;;;;;;;5035192;28;20028;-71
2022/05/25 12:31:24;;;;;;;3.20;1.30;;;;;;;;;;5035184;28;20029;-71
2022/05/25 12:33:52;;;;;;;3.05;0.90;;;;;;;;;;5038090;28;20385;-73
2022/05/25 12:36:18;;;;;;;5.07;0.82;;;;;;;;;;5035831;28;20030;-70
2022/05/25 12:38:44;;;;;;;3.45;0.95;;;;;;;;;;5037159;28;20060;-72
2022/05/25 12:41:23;;;;;;;8.27;1.45;;;;;;;;;;5035419;28;20026;-71
2022/05/25 12:43:51;;;;;;;2.10;0.80;;;;;;;;;;5034877;28;20025;-71
2022/05/25 12:49:06;;;;;;;2.92;0.90;;;;;;;;;;5034668;28;20087;-71
2022/05/25 12:51:39;;;;;;;4.55;1.10;;;;;;;;;;5036730;28;20025;-72
2022/05/25 12:54:21;;;;;;;2.55;1.58;;;;;;;;;;5034843;28;20022;-73
2022/05/25 12:56:48;;;;;;;5.82;1.10;;;;;;;;;;5034553;28;20096;-73
2022/05/25 12:59:25;;;;;;;5.93;1.15;;;;;;;;;;5034465;28;20052;-73
2022/05/25 13:02:10;;;;;;;4.22;1.05;;;;;;;;;;5034898;28;20127;-70
2022/05/25 13:04:42;;;;;;;5.20;1.10;;;;;;;;;;5034417;28;20033;-73
2022/05/25 13:07:40;;;;;;;2.47;0.90;;;;;;;;;;5034045;28;20501;-73
2022/05/25 13:10:10;;;;;;;2.65;0.98;;;;;;;;;;5009686;28;20637;-71
2022/05/25 13:12:47;;;;;;;1.60;0.95;;;;;;;;;;5040339;28;20088;-71
2022/05/25 13:15:17;;;;;;;3.92;1.00;;;;;;;;;;5033038;28;20037;-71
2022/05/25 13:17:48;;;;;;;3.90;1.00;;;;;;;;;;5034510;28;20021;-73
2022/05/25 13:20:46;;;;;;;3.65;0.88;;;;;;;;;;5033313;28;20028;-71
2022/05/25 13:23:32;;;;;;;3.75;0.80;;;;;;;;;;5033264;28;20117;-72
2022/05/25 13:26:02;;;;;;;5.35;0.90;;;;;;;;;;5031112;28;20108;-75
2022/05/25 13:28:28;;;;;;;3.42;1.15;;;;;;;;;;5032937;28;20104;-74
2022/05/25 13:31:03;;;;;;;2.53;1.02;;;;;;;;;;5033445;28;20025;-74
2022/05/25 13:33:36;;;;;;;2.03;0.68;;;;;;;;;;5033600;28;20029;-74
2022/05/25 13:36:28;;;;;;;2.47;0.95;;;;;;;;;;5033526;28;20033;-74
2022/05/25 13:39:07;;;;;;;3.90;0.80;;;;;;;;;;5032610;28;20041;-74
2022/05/25 13:41:40;;;;;;;4.38;0.85;;;;;;;;;;5033720;28;20143;-73
2022/05/25 13:44:08;;;;;;;5.35;0.90;;;;;;;;;;5034236;28;20021;-75
2022/05/25 13:46:39;;;;;;;4.88;0.95;;;;;;;;;;5032961;28;20029;-73
2022/05/25 13:49:05;;;;;;;3.20;0.95;;;;;;;;;;5033929;28;20017;-74
2022/05/25 13:51:31;;;;;;;3.17;1.05;;;;;;;;;;5034407;28;20079;-75
2022/05/25 13:53:57;;;;;;;5.43;0.93;;;;;;;;;;5032984;28;20367;-73
2022/05/25 13:56:26;;;;;;;3.55;1.10;;;;;;;;;;5032706;28;20025;-73
2022/05/25 13:59:05;;;;;;;2.67;1.10;;;;;;;;;;5032791;28;20021;-72
2022/05/25 14:01:31;;;;;;;6.95;1.20;;;;;;;;;;5031633;28;20028;-72
2022/05/25 14:04:00;;;;;;;4.72;0.95;;;;;;;;;;5032489;28;20075;-72
2022/05/25 14:06:26;;;;;;;4.90;1.20;;;;;;;;;;5031249;28;20101;-71
2022/05/25 14:11:45;;;;;;;5.75;1.35;;;;;;;;;;5032414;28;20067;-71
2022/05/25 14:14:20;;;;;;;2.78;1.00;;;;;;;;;;5035449;28;20068;-71
2022/05/25 14:16:52;;;;;;;2.78;0.95;;;;;;;;;;5031801;28;20379;-71
2022/05/25 14:19:25;;;;;;;3.22;0.90;;;;;;;;;;5032826;28;20465;-72
2022/05/25 14:24:32;;;;;;;6.15;1.05;;;;;;;;;;5009589;23;20043;-75
2022/05/25 14:27:21;;;;;;;5.45;0.90;;;;;;;;;;4981491;28;20037;-75
2022/05/25 14:29:53;;;;;;;2.67;1.00;;;;;;;;;;4980119;28;20027;-76
2022/05/25 14:32:33;;;;;;;3.53;1.02;;;;;;;;;;4963366;28;20022;-76
2022/05/25 14:35:00;;;;;;;5.18;0.90;;;;;;;;;;4976276;28;20030;-73
2022/05/25 14:37:30;;;;;;;4.47;0.80;;;;;;;;;;4979078;28;20027;-75
2022/05/25 14:39:59;;;;;;;6.65;1.05;;;;;;;;;;4996527;28;20023;-77
2022/05/25 14:42:51;;;;;;;2.47;0.88;;;;;;;;;;4981845;28;20035;-76
2022/05/25 14:45:44;;;;;;;2.67;0.82;;;;;;;;;;4995885;28;20082;-79
2022/05/25 14:48:14;;;;;;;5.45;1.00;;;;;;;;;;4979676;28;20046;-76
2022/05/25 14:50:46;;;;;;;2.85;0.82;;;;;;;;;;4996044;28;20031;-77
2022/05/25 14:58:18;;;;;;;4.70;0.95;;;;;;;;;;5316589;23;20038;-75
2022/05/25 15:00:45;;;;;;;2.85;0.70;;;;;;;;;;5105858;23;20027;-74
2022/05/25 15:03:12;;;;;;;1.95;0.77;;;;;;;;;;5144334;22;20044;-76
2022/05/25 15:08:32;;;;;;;2.33;1.00;;;;;;;;;;5016705;28;20027;-76
2022/05/25 15:11:20;;;;;;;5.07;0.95;;;;;;;;;;5002521;28;20014;-76
2022/05/25 15:19:26;;;;;;;4.63;1.35;;;;;;;;;;4988905;28;20061;-78
2022/05/25 15:21:53;;;;;;;2.33;1.00;;;;;;;;;;5064096;23;20133;-78
2022/05/25 15:24:22;;;;;;;4.10;0.93;;;;;;;;;;5022631;28;20015;-77
2022/05/25 15:26:55;;;;;;;10.00;1.48;;;;;;;;;;5004947;28;20018;-77
2022/05/25 15:29:34;;;;;;;2.97;1.17;;;;;;;;;;5005808;28;20014;-79
2022/05/25 15:32:02;;;;;;;4.50;1.10;;;;;;;;;;5005469;28;20034;-77
2022/05/25 15:34:28;;;;;;;5.43;1.50;;;;;;;;;;5022108;28;20019;-78
2022/05/25 15:36:55;;;;;;;5.10;1.50;;;;;;;;;;5044676;23;20049;-77
2022/05/25 15:39:21;;;;;;;7.68;1.45;;;;;;;;;;5041988;28;20024;-77
2022/05/25 15:41:48;;;;;;;9.10;1.70;;;;;;;;;;5036940;28;20038;-75
2022/05/25 15:44:15;;;;;;;5.93;1.60;;;;;;;;;;5005926;28;20003;-77
2022/05/25 15:46:46;;;;;;;4.18;1.75;;;;;;;;;;5005183;28;20010;-75